createdAt,value
2023-03-17T00:03:29.393Z,100591.50
2023-03-17T00:08:35.986Z,100589.78
2023-03-17T00:13:38.631Z,100582.75
2023-03-17T00:18:40.712Z,100570.81
2023-03-17T00:23:48.579Z,100559.47
2023-03-17T00:28:51.171Z,100551.22
2023-03-17T00:33:54.176Z,100551.94
2023-03-17T00:38:55.900Z,100556.44
2023-03-17T00:43:59.725Z,100560.88
2023-03-17T00:49:23.441Z,100572.16
2023-03-17T00:54:25.786Z,100550.44
2023-03-17T00:59:38.675Z,100531.56
2023-03-17T01:04:41.860Z,100524.53
2023-03-17T01:09:45.438Z,100533.28
2023-03-17T01:14:48.205Z,100542.72
2023-03-17T01:19:50.007Z,100536.19
2023-03-17T01:24:51.669Z,100548.19
2023-03-17T01:29:54.315Z,100535.53
2023-03-17T01:34:55.958Z,100530.72
2023-03-17T01:39:58.625Z,100528.31
2023-03-17T01:45:03.910Z,100520.44
2023-03-17T01:50:09.912Z,100513.22
2023-03-17T01:55:17.809Z,100515.97
2023-03-17T02:00:23.495Z,100514.44
2023-03-17T02:05:31.051Z,100509.78
2023-03-17T02:10:33.512Z,100513.22
2023-03-17T02:15:43.044Z,100502.63
2023-03-17T02:20:47.302Z,100495.25
2023-03-17T02:25:52.554Z,100503.63
2023-03-17T02:30:54.191Z,100483.44
2023-03-17T02:35:57.117Z,100492.88
2023-03-17T02:40:58.851Z,100486.69
2023-03-17T02:46:01.309Z,100487.19
2023-03-17T02:51:03.453Z,100491.50
2023-03-17T02:56:05.585Z,100498.69
2023-03-17T03:01:07.299Z,100488.94
2023-03-17T03:06:09.130Z,100485.34
2023-03-17T03:11:10.960Z,100494.75
2023-03-17T03:16:12.814Z,100489.09
2023-03-17T03:21:14.580Z,100482.06
2023-03-17T03:26:16.489Z,100485.81
2023-03-17T03:31:18.138Z,100488.75
2023-03-17T03:36:21.703Z,100500.91
2023-03-17T03:41:23.294Z,100497.50
2023-03-17T03:46:26.688Z,100499.22
2023-03-17T03:51:28.299Z,100509.53
2023-03-17T03:56:29.888Z,100497.88
2023-03-17T04:01:31.575Z,100499.56
2023-03-17T04:06:33.208Z,100511.91
2023-03-17T04:11:34.950Z,100515.50
2023-03-17T04:16:36.532Z,100520.13
2023-03-17T04:21:38.264Z,100515.19
2023-03-17T04:26:39.871Z,100508.13
2023-03-17T04:31:42.559Z,100505.41
2023-03-17T04:36:46.116Z,100504.06
2023-03-17T04:41:47.761Z,100486.06
2023-03-17T04:46:49.442Z,100509.84
2023-03-17T04:51:51.069Z,100504.75
2023-03-17T04:56:53.089Z,100524.41
2023-03-17T05:01:54.698Z,100511.22
2023-03-17T05:06:58.216Z,100516.88
2023-03-17T05:11:59.794Z,100515.69
2023-03-17T05:17:01.529Z,100517.22
2023-03-17T05:22:03.237Z,100486.72
2023-03-17T05:27:04.959Z,100489.97
2023-03-17T05:32:06.704Z,100485.84
2023-03-17T05:37:08.713Z,100475.94
2023-03-17T05:42:10.387Z,100465.81
2023-03-17T05:47:12.106Z,100445.56
2023-03-17T05:52:14.240Z,100468.22
2023-03-17T05:57:16.377Z,100469.41
2023-03-17T06:02:18.085Z,100487.19
2023-03-17T06:07:20.619Z,100501.63
2023-03-17T06:12:22.288Z,100510.88
2023-03-17T06:17:23.970Z,100479.88
2023-03-17T06:22:26.058Z,100477.28
2023-03-17T06:27:27.686Z,100479.50
2023-03-17T06:32:30.719Z,100479.50
2023-03-17T06:37:32.361Z,100497.50
2023-03-17T06:42:34.083Z,100488.09
2023-03-17T06:47:37.240Z,100491.97
2023-03-17T06:52:39.659Z,100480.50
2023-03-17T06:57:41.833Z,100492.16
2023-03-17T07:02:43.528Z,100511.34
2023-03-17T07:07:46.076Z,100522.50
2023-03-17T07:12:47.998Z,100521.78
2023-03-17T07:17:49.643Z,100508.41
2023-03-17T07:22:51.765Z,100512.69
2023-03-17T07:27:53.506Z,100514.56
2023-03-17T07:32:55.288Z,100504.25
2023-03-17T07:37:57.381Z,100490.47
2023-03-17T07:42:59.546Z,100491.28
2023-03-17T07:48:01.355Z,100506.69
2023-03-17T07:53:03.961Z,100503.44
2023-03-17T07:58:06.342Z,100552.84
2023-03-17T08:03:10.766Z,100532.28
2023-03-17T08:08:12.829Z,100517.56
2023-03-17T08:13:14.825Z,100507.22
2023-03-17T08:18:16.482Z,100496.94
2023-03-17T08:23:19.553Z,100489.50
2023-03-17T08:28:21.149Z,100475.50
2023-03-17T08:33:22.841Z,100478.50
2023-03-17T08:38:24.454Z,100491.19
2023-03-17T08:43:26.539Z,100510.31
2023-03-17T08:48:28.548Z,100506.81
2023-03-17T08:53:30.272Z,100528.00
2023-03-17T08:58:31.982Z,100521.97
2023-03-17T09:03:34.265Z,100510.41
2023-03-17T09:08:38.996Z,100512.06
2023-03-17T09:13:41.463Z,100520.47
2023-03-17T09:18:43.670Z,100546.66
2023-03-17T09:23:45.465Z,100538.31
2023-03-17T09:28:47.451Z,100546.91
2023-03-17T09:33:49.154Z,100538.00
2023-03-17T09:38:51.265Z,100549.66
2023-03-17T09:43:58.748Z,100574.47
2023-03-17T09:49:09.377Z,100570.88
2023-03-17T09:54:16.002Z,100567.97
2023-03-17T09:59:33.916Z,100565.03
2023-03-17T10:04:37.188Z,100570.13
2023-03-17T10:09:51.403Z,100579.53
2023-03-17T10:15:11.462Z,100585.03
2023-03-17T10:20:17.339Z,100594.88
2023-03-17T10:25:26.309Z,100599.91
2023-03-17T10:30:31.603Z,100608.34
2023-03-17T10:35:36.360Z,100619.38
2023-03-17T10:40:38.158Z,100625.09
2023-03-17T10:45:54.495Z,100611.25
2023-03-17T10:50:58.780Z,100602.59
2023-03-17T10:56:11.695Z,100594.53
2023-03-17T11:01:27.895Z,100590.63
2023-03-17T11:06:51.486Z,100589.72
2023-03-17T11:12:02.991Z,100600.22
2023-03-17T11:17:17.666Z,100598.25
2023-03-17T11:22:29.191Z,100579.09
2023-03-17T11:27:34.306Z,100572.94
2023-03-17T11:32:46.684Z,100581.53
2023-03-17T11:38:22.693Z,100578.38
2023-03-17T11:43:30.324Z,100580.88
2023-03-17T11:49:00.696Z,100571.75
2023-03-17T11:54:09.737Z,100559.59
2023-03-17T11:59:20.619Z,100518.63
2023-03-17T12:04:53.156Z,100501.72
2023-03-17T12:10:08.151Z,100506.91
2023-03-17T12:15:22.330Z,100485.00
2023-03-17T12:20:35.506Z,100469.38
2023-03-17T12:25:50.452Z,100483.03
2023-03-17T12:30:52.872Z,100505.81
2023-03-17T12:35:54.551Z,100511.75
2023-03-17T12:41:21.949Z,100534.78
2023-03-17T12:46:53.157Z,100543.56
2023-03-17T12:52:01.528Z,100547.81
2023-03-17T12:57:14.649Z,100550.78
2023-03-17T13:02:23.186Z,100553.16
2023-03-17T13:07:41.419Z,100536.31
2023-03-17T13:12:43.585Z,100520.97
2023-03-17T13:17:45.441Z,100496.69
2023-03-17T13:23:11.657Z,100496.50
2023-03-17T13:28:13.339Z,100535.03
2023-03-17T13:33:25.866Z,100537.34
2023-03-17T13:39:18.967Z,100528.41
2023-03-17T13:44:32.619Z,100537.59
2023-03-17T13:49:36.683Z,100530.75
2023-03-17T13:54:48.512Z,100527.78
2023-03-17T14:00:16.181Z,100520.53
2023-03-17T14:05:27.164Z,100516.69
2023-03-17T14:10:31.794Z,100504.56
2023-03-17T14:15:49.537Z,100500.97
2023-03-17T14:20:57.472Z,100488.81
2023-03-17T14:26:00.096Z,100494.38
2023-03-17T14:31:04.818Z,100493.50
2023-03-17T14:36:10.803Z,100492.47
2023-03-17T14:41:13.839Z,100471.38
2023-03-17T14:46:30.928Z,100474.56
2023-03-17T14:51:38.059Z,100457.13
2023-03-17T14:57:00.024Z,100461.56
2023-03-17T15:02:15.950Z,100453.72
2023-03-17T15:07:35.539Z,100446.88
2023-03-17T15:12:37.677Z,100434.75
2023-03-17T15:17:39.328Z,100432.00
2023-03-17T15:23:03.031Z,100434.75
2023-03-17T15:28:15.517Z,100426.44
2023-03-17T15:33:38.957Z,100414.34
2023-03-17T15:38:40.613Z,100420.91
2023-03-17T15:43:42.333Z,100423.50
2023-03-17T15:48:43.904Z,100415.81
2023-03-17T15:53:47.433Z,100424.97
2023-03-17T15:58:52.486Z,100429.88
2023-03-17T16:03:54.324Z,100426.88
2023-03-17T16:08:56.108Z,100430.50
2023-03-17T16:13:59.695Z,100433.72
2023-03-17T16:19:02.137Z,100434.97
2023-03-17T16:24:06.171Z,100450.31
2023-03-17T16:29:14.406Z,100448.19
2023-03-17T16:34:17.187Z,100460.94
2023-03-17T16:39:23.804Z,100471.56
2023-03-17T16:44:25.934Z,100470.94
2023-03-17T16:49:27.677Z,100473.69
2023-03-17T16:54:33.194Z,100468.81
2023-03-17T16:59:34.883Z,100460.94
2023-03-17T17:04:38.494Z,100469.47
2023-03-17T17:09:40.122Z,100472.22
2023-03-17T17:14:41.729Z,100477.53
2023-03-17T17:19:43.369Z,100476.25
2023-03-17T17:24:45.137Z,100477.97
2023-03-17T17:29:46.778Z,100477.53
2023-03-17T17:34:48.406Z,100480.50
2023-03-17T17:39:51.612Z,100463.69
2023-03-17T17:44:53.294Z,100468.59
2023-03-17T17:49:54.980Z,100471.56
2023-03-17T17:54:57.301Z,100471.34
2023-03-17T17:59:59.068Z,100476.25
2023-03-17T18:05:01.208Z,100469.00
2023-03-17T18:10:04.316Z,100472.19
2023-03-17T18:15:07.124Z,100472.41
2023-03-17T18:20:12.438Z,100475.38
2023-03-17T18:25:15.486Z,100483.91
2023-03-17T18:30:26.201Z,100488.56
2023-03-17T18:35:28.993Z,100474.97
2023-03-17T18:40:31.076Z,100485.59
2023-03-17T18:45:32.768Z,100484.94
2023-03-17T18:50:34.415Z,100485.16
2023-03-17T18:55:36.243Z,100496.41
2023-03-17T19:00:38.533Z,100497.47
2023-03-17T19:05:40.986Z,100497.88
2023-03-17T19:10:44.304Z,100488.72
2023-03-17T19:15:47.118Z,100482.38
2023-03-17T19:20:48.995Z,100484.44
2023-03-17T19:25:51.220Z,100477.88
2023-03-17T19:30:53.211Z,100485.94
2023-03-17T19:35:58.559Z,100471.06
2023-03-17T19:41:00.344Z,100476.16
2023-03-17T19:46:02.144Z,100476.59
2023-03-17T19:51:04.470Z,100476.59
2023-03-17T19:56:06.871Z,100481.66
2023-03-17T20:01:08.903Z,100479.53
2023-03-17T20:06:12.288Z,100481.00
2023-03-17T20:11:13.991Z,100490.78
2023-03-17T20:16:17.335Z,100495.00
2023-03-17T20:21:19.246Z,100499.84
2023-03-17T20:26:21.207Z,100496.44
2023-03-17T20:31:23.543Z,100501.31
2023-03-17T20:36:25.993Z,100506.66
2023-03-17T20:41:27.964Z,100507.03
2023-03-17T20:46:29.723Z,100510.56
2023-03-17T20:51:32.373Z,100529.06
2023-03-17T20:56:34.171Z,100547.06
2023-03-17T21:01:38.501Z,100544.22
2023-03-17T21:06:41.471Z,100550.94
2023-03-17T21:11:43.127Z,100552.59
2023-03-17T21:16:47.172Z,100559.16
2023-03-17T21:21:48.967Z,100548.22
2023-03-17T21:26:50.707Z,100565.59
2023-03-17T21:31:52.753Z,100558.25
2023-03-17T21:36:54.788Z,100547.13
2023-03-17T21:41:57.576Z,100560.47
2023-03-17T21:47:02.576Z,100552.53
2023-03-17T21:52:04.580Z,100552.91
2023-03-17T21:57:06.311Z,100559.44
2023-03-17T22:02:11.590Z,100559.53
2023-03-17T22:07:13.828Z,100551.84
2023-03-17T22:12:15.676Z,100560.91
2023-03-17T22:17:17.489Z,100577.00
2023-03-17T22:22:23.692Z,100588.19
2023-03-17T22:27:25.383Z,100583.63
2023-03-17T22:32:27.016Z,100597.63
2023-03-17T22:37:28.753Z,100607.88
2023-03-17T22:42:31.133Z,100603.50
2023-03-17T22:47:32.750Z,100606.09
2023-03-17T22:52:34.773Z,100606.66
2023-03-17T22:57:37.100Z,100605.25
2023-03-17T23:02:38.728Z,100598.97
2023-03-17T23:07:50.437Z,100606.28
2023-03-17T23:12:52.667Z,100603.50
2023-03-17T23:17:54.247Z,100604.84
2023-03-17T23:22:56.105Z,100604.75
2023-03-17T23:27:57.682Z,100600.41
2023-03-17T23:32:59.505Z,100605.69
2023-03-17T23:38:02.799Z,100609.88
2023-03-17T23:43:05.610Z,100609.88
2023-03-17T23:48:10.009Z,100614.84
2023-03-17T23:53:11.721Z,100602.28
2023-03-17T23:58:13.957Z,100603.81
